sensor_id;sensor_type;location;lat;lon;timestamp;P1;durP1;ratioP1;P2;durP2;ratioP2
59756;SDS011;45631;51.962;5.974;2022-08-19T00:01:52;8.98;;;5.50;;
59756;SDS011;45631;51.962;5.974;2022-08-19T00:04:23;7.32;;;5.15;;
59756;SDS011;45631;51.962;5.974;2022-08-19T00:06:53;8.27;;;5.55;;
59756;SDS011;45631;51.962;5.974;2022-08-19T00:09:22;7.05;;;5.47;;
59756;SDS011;45631;51.962;5.974;2022-08-19T00:11:51;8.63;;;5.35;;
59756;SDS011;45631;51.962;5.974;2022-08-19T00:14:23;9.73;;;5.95;;
59756;SDS011;45631;51.962;5.974;2022-08-19T00:16:52;8.02;;;5.65;;
59756;SDS011;45631;51.962;5.974;2022-08-19T00:19:21;8.32;;;5.63;;
59756;SDS011;45631;51.962;5.974;2022-08-19T00:21:51;10.82;;;6.18;;
59756;SDS011;45631;51.962;5.974;2022-08-19T00:24:19;9.48;;;6.32;;
59756;SDS011;45631;51.962;5.974;2022-08-19T00:26:48;9.25;;;7.50;;
59756;SDS011;45631;51.962;5.974;2022-08-19T00:29:20;10.00;;;7.25;;
59756;SDS011;45631;51.962;5.974;2022-08-19T00:31:49;9.23;;;7.78;;
59756;SDS011;45631;51.962;5.974;2022-08-19T00:34:21;11.30;;;7.53;;
59756;SDS011;45631;51.962;5.974;2022-08-19T00:36:49;12.35;;;7.28;;
59756;SDS011;45631;51.962;5.974;2022-08-19T00:39:17;9.45;;;7.43;;
59756;SDS011;45631;51.962;5.974;2022-08-19T00:41:47;12.02;;;7.85;;
59756;SDS011;45631;51.962;5.974;2022-08-19T00:44:17;8.55;;;7.30;;
59756;SDS011;45631;51.962;5.974;2022-08-19T00:46:53;10.88;;;7.63;;
59756;SDS011;45631;51.962;5.974;2022-08-19T00:49:31;11.95;;;8.32;;
59756;SDS011;45631;51.962;5.974;2022-08-19T00:52:04;11.07;;;8.00;;
59756;SDS011;45631;51.962;5.974;2022-08-19T00:57:06;11.90;;;8.63;;
59756;SDS011;45631;51.962;5.974;2022-08-19T00:59:40;16.17;;;9.45;;
59756;SDS011;45631;51.962;5.974;2022-08-19T01:02:29;11.00;;;8.90;;
59756;SDS011;45631;51.962;5.974;2022-08-19T01:04:59;11.05;;;9.18;;
59756;SDS011;45631;51.962;5.974;2022-08-19T01:07:28;11.52;;;9.63;;
59756;SDS011;45631;51.962;5.974;2022-08-19T01:10:04;13.18;;;9.57;;
59756;SDS011;45631;51.962;5.974;2022-08-19T01:12:35;11.63;;;9.57;;
59756;SDS011;45631;51.962;5.974;2022-08-19T01:15:05;12.93;;;9.90;;
59756;SDS011;45631;51.962;5.974;2022-08-19T01:17:35;13.95;;;10.40;;
59756;SDS011;45631;51.962;5.974;2022-08-19T01:20:08;12.95;;;10.68;;
59756;SDS011;45631;51.962;5.974;2022-08-19T01:22:42;14.50;;;10.98;;
59756;SDS011;45631;51.962;5.974;2022-08-19T01:25:14;12.43;;;10.73;;
59756;SDS011;45631;51.962;5.974;2022-08-19T01:27:46;12.75;;;10.70;;
59756;SDS011;45631;51.962;5.974;2022-08-19T01:30:19;13.30;;;10.75;;
59756;SDS011;45631;51.962;5.974;2022-08-19T01:32:49;12.85;;;10.75;;
59756;SDS011;45631;51.962;5.974;2022-08-19T01:35:19;13.30;;;11.45;;
59756;SDS011;45631;51.962;5.974;2022-08-19T01:37:51;15.02;;;11.73;;
59756;SDS011;45631;51.962;5.974;2022-08-19T01:40:22;15.48;;;11.70;;
59756;SDS011;45631;51.962;5.974;2022-08-19T01:42:53;14.00;;;11.98;;
59756;SDS011;45631;51.962;5.974;2022-08-19T01:45:22;14.40;;;11.75;;
59756;SDS011;45631;51.962;5.974;2022-08-19T01:47:52;15.38;;;11.40;;
59756;SDS011;45631;51.962;5.974;2022-08-19T01:50:28;15.43;;;11.23;;
59756;SDS011;45631;51.962;5.974;2022-08-19T01:52:59;16.15;;;12.32;;
59756;SDS011;45631;51.962;5.974;2022-08-19T01:55:34;16.75;;;12.70;;
59756;SDS011;45631;51.962;5.974;2022-08-19T01:58:07;15.15;;;12.25;;
59756;SDS011;45631;51.962;5.974;2022-08-19T02:00:39;15.27;;;12.63;;
59756;SDS011;45631;51.962;5.974;2022-08-19T02:03:08;16.45;;;12.60;;
59756;SDS011;45631;51.962;5.974;2022-08-19T02:05:38;17.02;;;13.30;;
59756;SDS011;45631;51.962;5.974;2022-08-19T02:08:08;14.98;;;13.25;;
59756;SDS011;45631;51.962;5.974;2022-08-19T02:10:38;17.33;;;13.60;;
59756;SDS011;45631;51.962;5.974;2022-08-19T02:13:08;17.15;;;12.82;;
59756;SDS011;45631;51.962;5.974;2022-08-19T02:15:36;15.25;;;12.93;;
59756;SDS011;45631;51.962;5.974;2022-08-19T02:18:05;16.02;;;13.45;;
59756;SDS011;45631;51.962;5.974;2022-08-19T02:20:34;17.48;;;12.32;;
59756;SDS011;45631;51.962;5.974;2022-08-19T02:23:03;15.50;;;13.00;;
59756;SDS011;45631;51.962;5.974;2022-08-19T02:25:43;16.17;;;13.48;;
59756;SDS011;45631;51.962;5.974;2022-08-19T02:28:14;17.13;;;13.77;;
59756;SDS011;45631;51.962;5.974;2022-08-19T02:30:45;16.58;;;14.38;;
59756;SDS011;45631;51.962;5.974;2022-08-19T02:33:14;17.33;;;15.00;;
59756;SDS011;45631;51.962;5.974;2022-08-19T02:35:43;18.70;;;15.23;;
59756;SDS011;45631;51.962;5.974;2022-08-19T02:38:12;18.58;;;14.40;;
59756;SDS011;45631;51.962;5.974;2022-08-19T02:40:55;18.17;;;14.57;;
59756;SDS011;45631;51.962;5.974;2022-08-19T02:43:26;18.85;;;15.15;;
59756;SDS011;45631;51.962;5.974;2022-08-19T02:46:00;17.15;;;13.25;;
59756;SDS011;45631;51.962;5.974;2022-08-19T02:48:28;15.88;;;13.07;;
59756;SDS011;45631;51.962;5.974;2022-08-19T02:50:59;15.40;;;12.40;;
59756;SDS011;45631;51.962;5.974;2022-08-19T02:53:28;16.33;;;13.68;;
59756;SDS011;45631;51.962;5.974;2022-08-19T02:55:57;16.50;;;14.02;;
59756;SDS011;45631;51.962;5.974;2022-08-19T02:58:26;18.05;;;14.15;;
59756;SDS011;45631;51.962;5.974;2022-08-19T03:00:55;15.68;;;13.35;;
59756;SDS011;45631;51.962;5.974;2022-08-19T03:03:24;16.98;;;14.23;;
59756;SDS011;45631;51.962;5.974;2022-08-19T03:06:02;17.75;;;13.77;;
59756;SDS011;45631;51.962;5.974;2022-08-19T03:08:36;16.55;;;13.77;;
59756;SDS011;45631;51.962;5.974;2022-08-19T03:11:10;16.30;;;13.98;;
59756;SDS011;45631;51.962;5.974;2022-08-19T03:13:40;16.50;;;13.50;;
59756;SDS011;45631;51.962;5.974;2022-08-19T03:16:09;17.00;;;13.82;;
59756;SDS011;45631;51.962;5.974;2022-08-19T03:18:39;15.23;;;12.70;;
59756;SDS011;45631;51.962;5.974;2022-08-19T03:21:08;15.98;;;14.00;;
59756;SDS011;45631;51.962;5.974;2022-08-19T03:23:38;17.95;;;13.43;;
59756;SDS011;45631;51.962;5.974;2022-08-19T03:26:07;16.40;;;13.70;;
59756;SDS011;45631;51.962;5.974;2022-08-19T03:28:42;18.13;;;13.93;;
59756;SDS011;45631;51.962;5.974;2022-08-19T03:31:25;17.45;;;13.07;;
59756;SDS011;45631;51.962;5.974;2022-08-19T03:34:10;16.90;;;13.38;;
59756;SDS011;45631;51.962;5.974;2022-08-19T03:36:39;15.50;;;12.88;;
59756;SDS011;45631;51.962;5.974;2022-08-19T03:39:09;15.35;;;13.60;;
59756;SDS011;45631;51.962;5.974;2022-08-19T03:41:40;20.42;;;14.35;;
59756;SDS011;45631;51.962;5.974;2022-08-19T03:44:11;16.05;;;13.65;;
59756;SDS011;45631;51.962;5.974;2022-08-19T03:46:43;17.67;;;14.68;;
59756;SDS011;45631;51.962;5.974;2022-08-19T03:49:12;16.38;;;13.60;;
59756;SDS011;45631;51.962;5.974;2022-08-19T03:51:41;18.10;;;14.80;;
59756;SDS011;45631;51.962;5.974;2022-08-19T03:54:11;18.80;;;14.43;;
59756;SDS011;45631;51.962;5.974;2022-08-19T03:56:44;19.65;;;16.40;;
59756;SDS011;45631;51.962;5.974;2022-08-19T03:59:18;19.70;;;16.80;;
59756;SDS011;45631;51.962;5.974;2022-08-19T04:01:49;18.70;;;15.80;;
59756;SDS011;45631;51.962;5.974;2022-08-19T04:04:17;17.95;;;14.40;;
59756;SDS011;45631;51.962;5.974;2022-08-19T04:06:46;19.70;;;15.10;;
59756;SDS011;45631;51.962;5.974;2022-08-19T04:09:15;17.00;;;13.32;;
59756;SDS011;45631;51.962;5.974;2022-08-19T04:11:45;15.77;;;13.52;;
59756;SDS011;45631;51.962;5.974;2022-08-19T04:14:16;18.15;;;13.52;;
59756;SDS011;45631;51.962;5.974;2022-08-19T04:16:47;18.25;;;14.13;;
59756;SDS011;45631;51.962;5.974;2022-08-19T04:19:16;16.17;;;13.70;;
59756;SDS011;45631;51.962;5.974;2022-08-19T04:21:46;18.10;;;14.60;;
59756;SDS011;45631;51.962;5.974;2022-08-19T04:24:16;16.98;;;14.35;;
59756;SDS011;45631;51.962;5.974;2022-08-19T04:26:47;17.23;;;14.90;;
59756;SDS011;45631;51.962;5.974;2022-08-19T04:29:18;23.88;;;15.68;;
59756;SDS011;45631;51.962;5.974;2022-08-19T04:31:48;18.40;;;14.90;;
59756;SDS011;45631;51.962;5.974;2022-08-19T04:34:18;18.70;;;15.90;;
59756;SDS011;45631;51.962;5.974;2022-08-19T04:36:49;18.83;;;15.48;;
59756;SDS011;45631;51.962;5.974;2022-08-19T04:39:19;18.70;;;14.95;;
59756;SDS011;45631;51.962;5.974;2022-08-19T04:41:50;19.15;;;15.25;;
59756;SDS011;45631;51.962;5.974;2022-08-19T04:44:56;19.75;;;16.58;;
59756;SDS011;45631;51.962;5.974;2022-08-19T04:47:25;18.80;;;15.52;;
59756;SDS011;45631;51.962;5.974;2022-08-19T04:50:14;16.73;;;14.23;;
59756;SDS011;45631;51.962;5.974;2022-08-19T04:52:42;17.67;;;15.35;;
59756;SDS011;45631;51.962;5.974;2022-08-19T04:55:10;18.45;;;14.63;;
59756;SDS011;45631;51.962;5.974;2022-08-19T04:57:42;18.98;;;15.10;;
59756;SDS011;45631;51.962;5.974;2022-08-19T05:00:11;17.73;;;14.52;;
59756;SDS011;45631;51.962;5.974;2022-08-19T05:02:40;18.52;;;14.98;;
59756;SDS011;45631;51.962;5.974;2022-08-19T05:05:09;17.35;;;14.38;;
59756;SDS011;45631;51.962;5.974;2022-08-19T05:07:37;17.73;;;14.63;;
59756;SDS011;45631;51.962;5.974;2022-08-19T05:10:07;18.77;;;15.00;;
59756;SDS011;45631;51.962;5.974;2022-08-19T05:12:37;17.48;;;15.00;;
59756;SDS011;45631;51.962;5.974;2022-08-19T05:15:07;16.00;;;13.50;;
59756;SDS011;45631;51.962;5.974;2022-08-19T05:17:36;17.02;;;14.02;;
59756;SDS011;45631;51.962;5.974;2022-08-19T05:20:24;16.65;;;14.13;;
59756;SDS011;45631;51.962;5.974;2022-08-19T05:23:10;18.90;;;15.18;;
59756;SDS011;45631;51.962;5.974;2022-08-19T05:25:47;18.73;;;14.80;;
59756;SDS011;45631;51.962;5.974;2022-08-19T05:28:16;19.17;;;15.73;;
59756;SDS011;45631;51.962;5.974;2022-08-19T05:30:49;20.23;;;17.00;;
59756;SDS011;45631;51.962;5.974;2022-08-19T05:33:17;20.55;;;17.45;;
59756;SDS011;45631;51.962;5.974;2022-08-19T05:35:45;21.83;;;16.90;;
59756;SDS011;45631;51.962;5.974;2022-08-19T05:38:16;19.67;;;16.38;;
59756;SDS011;45631;51.962;5.974;2022-08-19T05:40:46;20.40;;;16.77;;
59756;SDS011;45631;51.962;5.974;2022-08-19T05:43:17;20.02;;;17.35;;
59756;SDS011;45631;51.962;5.974;2022-08-19T05:45:46;23.88;;;18.25;;
59756;SDS011;45631;51.962;5.974;2022-08-19T05:48:22;23.25;;;18.83;;
59756;SDS011;45631;51.962;5.974;2022-08-19T05:50:50;20.63;;;18.27;;
59756;SDS011;45631;51.962;5.974;2022-08-19T05:53:18;22.50;;;18.90;;
59756;SDS011;45631;51.962;5.974;2022-08-19T05:55:46;22.27;;;18.95;;
59756;SDS011;45631;51.962;5.974;2022-08-19T05:58:17;25.38;;;19.90;;
59756;SDS011;45631;51.962;5.974;2022-08-19T06:00:49;23.15;;;18.83;;
59756;SDS011;45631;51.962;5.974;2022-08-19T06:03:21;24.23;;;19.73;;
59756;SDS011;45631;51.962;5.974;2022-08-19T06:05:52;28.00;;;20.80;;
59756;SDS011;45631;51.962;5.974;2022-08-19T06:08:24;28.98;;;22.85;;
59756;SDS011;45631;51.962;5.974;2022-08-19T06:11:14;28.55;;;23.17;;
59756;SDS011;45631;51.962;5.974;2022-08-19T06:13:46;26.10;;;22.55;;
59756;SDS011;45631;51.962;5.974;2022-08-19T06:16:25;26.60;;;22.42;;
59756;SDS011;45631;51.962;5.974;2022-08-19T06:18:56;26.25;;;21.45;;
59756;SDS011;45631;51.962;5.974;2022-08-19T06:21:27;27.25;;;20.75;;
59756;SDS011;45631;51.962;5.974;2022-08-19T06:23:56;25.83;;;22.30;;
59756;SDS011;45631;51.962;5.974;2022-08-19T06:26:25;30.42;;;23.75;;
59756;SDS011;45631;51.962;5.974;2022-08-19T06:28:54;29.73;;;23.60;;
59756;SDS011;45631;51.962;5.974;2022-08-19T06:31:25;31.17;;;24.52;;
59756;SDS011;45631;51.962;5.974;2022-08-19T06:33:56;32.80;;;23.60;;
59756;SDS011;45631;51.962;5.974;2022-08-19T06:36:26;33.30;;;25.10;;
59756;SDS011;45631;51.962;5.974;2022-08-19T06:38:58;30.58;;;23.92;;
59756;SDS011;45631;51.962;5.974;2022-08-19T06:41:26;30.85;;;24.20;;
59756;SDS011;45631;51.962;5.974;2022-08-19T06:43:55;30.95;;;25.08;;
59756;SDS011;45631;51.962;5.974;2022-08-19T06:46:24;31.80;;;24.08;;
59756;SDS011;45631;51.962;5.974;2022-08-19T06:48:54;30.05;;;24.83;;
59756;SDS011;45631;51.962;5.974;2022-08-19T06:51:24;31.42;;;25.05;;
59756;SDS011;45631;51.962;5.974;2022-08-19T06:53:57;30.13;;;22.83;;
59756;SDS011;45631;51.962;5.974;2022-08-19T06:56:26;34.60;;;26.55;;
59756;SDS011;45631;51.962;5.974;2022-08-19T06:59:00;35.97;;;26.83;;
59756;SDS011;45631;51.962;5.974;2022-08-19T07:01:28;37.05;;;27.70;;
59756;SDS011;45631;51.962;5.974;2022-08-19T07:03:56;46.72;;;32.25;;
59756;SDS011;45631;51.962;5.974;2022-08-19T07:06:27;46.15;;;30.70;;
59756;SDS011;45631;51.962;5.974;2022-08-19T07:09:10;48.60;;;31.83;;
59756;SDS011;45631;51.962;5.974;2022-08-19T07:11:44;49.65;;;31.25;;
59756;SDS011;45631;51.962;5.974;2022-08-19T07:14:13;47.13;;;31.42;;
59756;SDS011;45631;51.962;5.974;2022-08-19T07:16:46;49.85;;;32.65;;
59756;SDS011;45631;51.962;5.974;2022-08-19T07:19:15;49.40;;;34.25;;
59756;SDS011;45631;51.962;5.974;2022-08-19T07:21:46;48.70;;;33.40;;
59756;SDS011;45631;51.962;5.974;2022-08-19T07:24:16;52.95;;;35.58;;
59756;SDS011;45631;51.962;5.974;2022-08-19T07:26:45;55.92;;;35.50;;
59756;SDS011;45631;51.962;5.974;2022-08-19T07:29:17;63.03;;;37.78;;
59756;SDS011;45631;51.962;5.974;2022-08-19T07:31:51;62.92;;;39.42;;
59756;SDS011;45631;51.962;5.974;2022-08-19T07:34:23;63.60;;;35.97;;
59756;SDS011;45631;51.962;5.974;2022-08-19T07:36:53;64.40;;;36.47;;
59756;SDS011;45631;51.962;5.974;2022-08-19T07:39:23;62.05;;;36.95;;
59756;SDS011;45631;51.962;5.974;2022-08-19T07:41:53;66.72;;;38.03;;
59756;SDS011;45631;51.962;5.974;2022-08-19T07:44:23;68.20;;;40.08;;
59756;SDS011;45631;51.962;5.974;2022-08-19T07:46:51;70.20;;;38.92;;
59756;SDS011;45631;51.962;5.974;2022-08-19T07:49:22;66.20;;;39.22;;
59756;SDS011;45631;51.962;5.974;2022-08-19T07:51:51;59.63;;;35.72;;
59756;SDS011;45631;51.962;5.974;2022-08-19T07:54:23;58.88;;;35.70;;
59756;SDS011;45631;51.962;5.974;2022-08-19T07:56:53;62.78;;;37.10;;
59756;SDS011;45631;51.962;5.974;2022-08-19T07:59:24;66.32;;;39.28;;
59756;SDS011;45631;51.962;5.974;2022-08-19T08:01:52;62.00;;;38.92;;
59756;SDS011;45631;51.962;5.974;2022-08-19T08:04:20;64.47;;;41.67;;
59756;SDS011;45631;51.962;5.974;2022-08-19T08:07:07;57.33;;;41.05;;
59756;SDS011;45631;51.962;5.974;2022-08-19T08:09:57;63.22;;;40.80;;
59756;SDS011;45631;51.962;5.974;2022-08-19T08:12:30;60.60;;;42.38;;
59756;SDS011;45631;51.962;5.974;2022-08-19T08:15:03;63.85;;;43.58;;
59756;SDS011;45631;51.962;5.974;2022-08-19T08:17:38;63.25;;;43.05;;
59756;SDS011;45631;51.962;5.974;2022-08-19T08:20:17;59.65;;;42.33;;
59756;SDS011;45631;51.962;5.974;2022-08-19T08:22:48;60.25;;;41.72;;
59756;SDS011;45631;51.962;5.974;2022-08-19T08:25:37;54.00;;;40.97;;
59756;SDS011;45631;51.962;5.974;2022-08-19T08:28:06;54.35;;;42.47;;
59756;SDS011;45631;51.962;5.974;2022-08-19T08:30:36;51.35;;;40.80;;
59756;SDS011;45631;51.962;5.974;2022-08-19T08:33:10;49.55;;;40.75;;
59756;SDS011;45631;51.962;5.974;2022-08-19T08:35:44;47.33;;;40.17;;
59756;SDS011;45631;51.962;5.974;2022-08-19T08:38:14;46.35;;;38.50;;
59756;SDS011;45631;51.962;5.974;2022-08-19T08:40:45;48.47;;;40.30;;
59756;SDS011;45631;51.962;5.974;2022-08-19T08:43:22;49.58;;;41.15;;
59756;SDS011;45631;51.962;5.974;2022-08-19T08:45:59;44.53;;;37.97;;
59756;SDS011;45631;51.962;5.974;2022-08-19T08:51:03;43.60;;;35.70;;
59756;SDS011;45631;51.962;5.974;2022-08-19T08:53:36;36.67;;;29.30;;
59756;SDS011;45631;51.962;5.974;2022-08-19T08:56:09;33.50;;;27.00;;
59756;SDS011;45631;51.962;5.974;2022-08-19T08:58:47;33.08;;;27.60;;
59756;SDS011;45631;51.962;5.974;2022-08-19T09:01:22;35.50;;;30.23;;
59756;SDS011;45631;51.962;5.974;2022-08-19T09:03:56;30.13;;;23.83;;
59756;SDS011;45631;51.962;5.974;2022-08-19T09:06:29;28.50;;;22.38;;
59756;SDS011;45631;51.962;5.974;2022-08-19T09:09:14;27.63;;;21.05;;
59756;SDS011;45631;51.962;5.974;2022-08-19T09:11:47;23.10;;;19.48;;
59756;SDS011;45631;51.962;5.974;2022-08-19T09:14:31;26.80;;;20.95;;
59756;SDS011;45631;51.962;5.974;2022-08-19T09:17:21;24.63;;;19.92;;
59756;SDS011;45631;51.962;5.974;2022-08-19T09:19:58;24.05;;;19.77;;
59756;SDS011;45631;51.962;5.974;2022-08-19T09:22:30;23.50;;;17.42;;
59756;SDS011;45631;51.962;5.974;2022-08-19T09:25:00;21.85;;;16.38;;
59756;SDS011;45631;51.962;5.974;2022-08-19T09:27:29;25.85;;;20.27;;
59756;SDS011;45631;51.962;5.974;2022-08-19T09:30:10;23.35;;;17.48;;
59756;SDS011;45631;51.962;5.974;2022-08-19T09:32:41;20.95;;;16.02;;
59756;SDS011;45631;51.962;5.974;2022-08-19T09:35:10;20.08;;;15.20;;
59756;SDS011;45631;51.962;5.974;2022-08-19T09:37:40;24.35;;;19.08;;
59756;SDS011;45631;51.962;5.974;2022-08-19T09:40:12;21.38;;;16.45;;
59756;SDS011;45631;51.962;5.974;2022-08-19T09:42:41;23.80;;;18.45;;
59756;SDS011;45631;51.962;5.974;2022-08-19T09:45:17;25.90;;;18.73;;
59756;SDS011;45631;51.962;5.974;2022-08-19T09:50:20;21.90;;;17.17;;
59756;SDS011;45631;51.962;5.974;2022-08-19T09:52:49;27.38;;;20.48;;
59756;SDS011;45631;51.962;5.974;2022-08-19T09:55:25;24.98;;;19.38;;
59756;SDS011;45631;51.962;5.974;2022-08-19T09:58:00;25.83;;;22.08;;
59756;SDS011;45631;51.962;5.974;2022-08-19T10:00:29;30.95;;;24.42;;
59756;SDS011;45631;51.962;5.974;2022-08-19T10:02:58;29.70;;;22.95;;
59756;SDS011;45631;51.962;5.974;2022-08-19T10:05:28;29.50;;;21.98;;
59756;SDS011;45631;51.962;5.974;2022-08-19T10:08:14;28.67;;;21.35;;
59756;SDS011;45631;51.962;5.974;2022-08-19T10:10:47;30.27;;;21.13;;
59756;SDS011;45631;51.962;5.974;2022-08-19T10:13:18;29.92;;;21.52;;
59756;SDS011;45631;51.962;5.974;2022-08-19T10:15:52;28.63;;;19.63;;
59756;SDS011;45631;51.962;5.974;2022-08-19T10:18:23;27.88;;;21.23;;
59756;SDS011;45631;51.962;5.974;2022-08-19T10:20:52;28.85;;;20.88;;
59756;SDS011;45631;51.962;5.974;2022-08-19T10:23:30;25.13;;;18.73;;
59756;SDS011;45631;51.962;5.974;2022-08-19T10:26:02;25.30;;;18.08;;
59756;SDS011;45631;51.962;5.974;2022-08-19T10:28:32;25.65;;;18.60;;
59756;SDS011;45631;51.962;5.974;2022-08-19T10:31:05;22.60;;;16.58;;
59756;SDS011;45631;51.962;5.974;2022-08-19T10:33:34;22.77;;;17.05;;
59756;SDS011;45631;51.962;5.974;2022-08-19T10:36:20;21.65;;;16.55;;
59756;SDS011;45631;51.962;5.974;2022-08-19T10:38:51;20.80;;;15.27;;
59756;SDS011;45631;51.962;5.974;2022-08-19T10:41:26;23.38;;;17.75;;
59756;SDS011;45631;51.962;5.974;2022-08-19T10:43:56;22.58;;;16.48;;
59756;SDS011;45631;51.962;5.974;2022-08-19T10:46:30;20.75;;;15.25;;
59756;SDS011;45631;51.962;5.974;2022-08-19T10:48:59;19.17;;;15.00;;
59756;SDS011;45631;51.962;5.974;2022-08-19T10:51:28;21.02;;;15.00;;
59756;SDS011;45631;51.962;5.974;2022-08-19T10:54:14;18.35;;;13.73;;
59756;SDS011;45631;51.962;5.974;2022-08-19T10:56:58;19.05;;;15.93;;
59756;SDS011;45631;51.962;5.974;2022-08-19T10:59:26;23.80;;;18.20;;
59756;SDS011;45631;51.962;5.974;2022-08-19T11:02:02;19.65;;;14.90;;
59756;SDS011;45631;51.962;5.974;2022-08-19T11:04:31;20.50;;;14.98;;
59756;SDS011;45631;51.962;5.974;2022-08-19T11:07:01;23.73;;;16.10;;
59756;SDS011;45631;51.962;5.974;2022-08-19T11:09:30;20.35;;;13.50;;
59756;SDS011;45631;51.962;5.974;2022-08-19T11:12:01;21.48;;;15.75;;
59756;SDS011;45631;51.962;5.974;2022-08-19T11:14:31;19.35;;;14.32;;
59756;SDS011;45631;51.962;5.974;2022-08-19T11:17:00;18.35;;;14.35;;
59756;SDS011;45631;51.962;5.974;2022-08-19T11:19:29;19.95;;;14.40;;
59756;SDS011;45631;51.962;5.974;2022-08-19T11:21:58;21.55;;;17.38;;
59756;SDS011;45631;51.962;5.974;2022-08-19T11:24:29;21.30;;;15.98;;
59756;SDS011;45631;51.962;5.974;2022-08-19T11:27:04;21.42;;;15.48;;
59756;SDS011;45631;51.962;5.974;2022-08-19T11:29:35;18.27;;;14.88;;
59756;SDS011;45631;51.962;5.974;2022-08-19T11:32:07;19.10;;;15.30;;
59756;SDS011;45631;51.962;5.974;2022-08-19T11:34:37;16.52;;;13.63;;
59756;SDS011;45631;51.962;5.974;2022-08-19T11:37:06;19.98;;;14.88;;
59756;SDS011;45631;51.962;5.974;2022-08-19T11:39:35;16.50;;;13.98;;
59756;SDS011;45631;51.962;5.974;2022-08-19T11:42:06;20.00;;;14.27;;
59756;SDS011;45631;51.962;5.974;2022-08-19T11:44:49;19.33;;;13.93;;
59756;SDS011;45631;51.962;5.974;2022-08-19T11:47:17;16.83;;;14.75;;
59756;SDS011;45631;51.962;5.974;2022-08-19T11:49:45;17.95;;;14.27;;
59756;SDS011;45631;51.962;5.974;2022-08-19T11:52:14;21.55;;;14.63;;
59756;SDS011;45631;51.962;5.974;2022-08-19T11:54:42;19.17;;;15.23;;
59756;SDS011;45631;51.962;5.974;2022-08-19T11:57:11;18.85;;;13.27;;
59756;SDS011;45631;51.962;5.974;2022-08-19T11:59:47;17.92;;;14.43;;
59756;SDS011;45631;51.962;5.974;2022-08-19T12:02:16;17.70;;;15.15;;
59756;SDS011;45631;51.962;5.974;2022-08-19T12:04:45;18.23;;;13.55;;
59756;SDS011;45631;51.962;5.974;2022-08-19T12:07:13;18.23;;;13.18;;
59756;SDS011;45631;51.962;5.974;2022-08-19T12:09:42;18.20;;;13.57;;
59756;SDS011;45631;51.962;5.974;2022-08-19T12:12:13;16.52;;;13.07;;
59756;SDS011;45631;51.962;5.974;2022-08-19T12:14:41;16.38;;;12.00;;
59756;SDS011;45631;51.962;5.974;2022-08-19T12:17:09;16.13;;;12.15;;
59756;SDS011;45631;51.962;5.974;2022-08-19T12:19:39;16.13;;;11.85;;
59756;SDS011;45631;51.962;5.974;2022-08-19T12:22:07;13.60;;;11.45;;
59756;SDS011;45631;51.962;5.974;2022-08-19T12:24:35;15.88;;;10.98;;
59756;SDS011;45631;51.962;5.974;2022-08-19T12:27:03;14.73;;;11.65;;
59756;SDS011;45631;51.962;5.974;2022-08-19T12:29:39;16.63;;;12.57;;
59756;SDS011;45631;51.962;5.974;2022-08-19T12:32:08;19.50;;;16.48;;
59756;SDS011;45631;51.962;5.974;2022-08-19T12:34:37;16.80;;;14.13;;
59756;SDS011;45631;51.962;5.974;2022-08-19T12:37:06;14.73;;;12.45;;
59756;SDS011;45631;51.962;5.974;2022-08-19T12:39:35;14.13;;;11.43;;
59756;SDS011;45631;51.962;5.974;2022-08-19T12:42:04;17.02;;;15.23;;
59756;SDS011;45631;51.962;5.974;2022-08-19T12:44:33;17.90;;;13.32;;
59756;SDS011;45631;51.962;5.974;2022-08-19T12:47:04;18.02;;;15.07;;
59756;SDS011;45631;51.962;5.974;2022-08-19T12:49:37;20.80;;;15.60;;
59756;SDS011;45631;51.962;5.974;2022-08-19T12:52:21;16.02;;;13.93;;
59756;SDS011;45631;51.962;5.974;2022-08-19T12:54:51;18.25;;;14.65;;
59756;SDS011;45631;51.962;5.974;2022-08-19T12:57:21;19.92;;;16.58;;
59756;SDS011;45631;51.962;5.974;2022-08-19T12:59:58;19.27;;;15.68;;
59756;SDS011;45631;51.962;5.974;2022-08-19T13:02:28;18.63;;;16.13;;
59756;SDS011;45631;51.962;5.974;2022-08-19T13:05:05;20.48;;;16.92;;
59756;SDS011;45631;51.962;5.974;2022-08-19T13:07:35;17.90;;;15.93;;
59756;SDS011;45631;51.962;5.974;2022-08-19T13:10:05;17.85;;;14.15;;
59756;SDS011;45631;51.962;5.974;2022-08-19T13:12:35;17.27;;;15.38;;
59756;SDS011;45631;51.962;5.974;2022-08-19T13:15:03;19.92;;;17.88;;
59756;SDS011;45631;51.962;5.974;2022-08-19T13:17:38;18.58;;;15.43;;
59756;SDS011;45631;51.962;5.974;2022-08-19T13:20:07;20.85;;;15.63;;
59756;SDS011;45631;51.962;5.974;2022-08-19T13:22:37;17.33;;;14.90;;
59756;SDS011;45631;51.962;5.974;2022-08-19T13:25:06;20.08;;;13.88;;
59756;SDS011;45631;51.962;5.974;2022-08-19T13:27:35;19.55;;;15.88;;
59756;SDS011;45631;51.962;5.974;2022-08-19T13:30:04;16.90;;;14.27;;
59756;SDS011;45631;51.962;5.974;2022-08-19T13:32:54;17.48;;;14.13;;
59756;SDS011;45631;51.962;5.974;2022-08-19T13:35:42;20.30;;;16.48;;
59756;SDS011;45631;51.962;5.974;2022-08-19T13:38:13;19.23;;;16.08;;
59756;SDS011;45631;51.962;5.974;2022-08-19T13:40:43;19.25;;;14.90;;
59756;SDS011;45631;51.962;5.974;2022-08-19T13:43:12;17.58;;;13.10;;
59756;SDS011;45631;51.962;5.974;2022-08-19T13:45:49;15.90;;;12.30;;
59756;SDS011;45631;51.962;5.974;2022-08-19T13:48:24;16.60;;;12.95;;
59756;SDS011;45631;51.962;5.974;2022-08-19T13:50:53;16.08;;;13.07;;
59756;SDS011;45631;51.962;5.974;2022-08-19T13:53:22;13.07;;;10.85;;
59756;SDS011;45631;51.962;5.974;2022-08-19T13:55:50;17.55;;;13.30;;
59756;SDS011;45631;51.962;5.974;2022-08-19T13:58:20;14.45;;;11.55;;
59756;SDS011;45631;51.962;5.974;2022-08-19T14:00:48;14.00;;;11.07;;
59756;SDS011;45631;51.962;5.974;2022-08-19T14:03:16;15.15;;;12.02;;
59756;SDS011;45631;51.962;5.974;2022-08-19T14:05:46;12.43;;;10.75;;
59756;SDS011;45631;51.962;5.974;2022-08-19T14:08:14;12.32;;;9.23;;
59756;SDS011;45631;51.962;5.974;2022-08-19T14:10:43;13.02;;;10.80;;
59756;SDS011;45631;51.962;5.974;2022-08-19T14:13:13;16.02;;;12.85;;
59756;SDS011;45631;51.962;5.974;2022-08-19T14:15:42;14.18;;;10.75;;
59756;SDS011;45631;51.962;5.974;2022-08-19T14:18:11;14.25;;;11.75;;
59756;SDS011;45631;51.962;5.974;2022-08-19T14:20:39;14.43;;;10.18;;
59756;SDS011;45631;51.962;5.974;2022-08-19T14:23:09;14.95;;;12.90;;
59756;SDS011;45631;51.962;5.974;2022-08-19T14:25:38;17.50;;;14.98;;
59756;SDS011;45631;51.962;5.974;2022-08-19T14:28:07;15.57;;;13.00;;
59756;SDS011;45631;51.962;5.974;2022-08-19T14:30:35;15.55;;;12.00;;
59756;SDS011;45631;51.962;5.974;2022-08-19T14:33:05;17.10;;;15.18;;
59756;SDS011;45631;51.962;5.974;2022-08-19T14:35:35;14.40;;;12.00;;
59756;SDS011;45631;51.962;5.974;2022-08-19T14:38:04;21.48;;;14.68;;
59756;SDS011;45631;51.962;5.974;2022-08-19T14:40:34;15.65;;;14.00;;
59756;SDS011;45631;51.962;5.974;2022-08-19T14:43:03;16.10;;;12.35;;
59756;SDS011;45631;51.962;5.974;2022-08-19T14:45:32;17.02;;;11.68;;
59756;SDS011;45631;51.962;5.974;2022-08-19T14:48:03;18.98;;;15.18;;
59756;SDS011;45631;51.962;5.974;2022-08-19T14:50:31;18.73;;;15.18;;
59756;SDS011;45631;51.962;5.974;2022-08-19T14:53:00;17.02;;;14.73;;
59756;SDS011;45631;51.962;5.974;2022-08-19T14:55:41;18.73;;;15.13;;
59756;SDS011;45631;51.962;5.974;2022-08-19T14:58:10;19.85;;;16.88;;